createdAt,value
2023-05-21T00:01:23.921Z,10.93
2023-05-21T00:03:50.682Z,11.20
2023-05-21T00:06:17.264Z,10.03
2023-05-21T00:08:43.733Z,10.93
2023-05-21T00:11:10.406Z,11.17
2023-05-21T00:13:36.866Z,10.80
2023-05-21T00:16:03.355Z,10.77
2023-05-21T00:18:32.162Z,10.97
2023-05-21T00:20:59.257Z,10.20
2023-05-21T00:23:26.358Z,10.43
2023-05-21T00:25:53.299Z,10.13
2023-05-21T00:28:19.737Z,10.13
2023-05-21T00:30:47.215Z,9.90
2023-05-21T00:33:13.831Z,10.23
2023-05-21T00:35:40.366Z,10.90
2023-05-21T00:38:08.391Z,9.40
2023-05-21T00:40:36.118Z,9.40
2023-05-21T00:43:02.649Z,11.43
2023-05-21T00:45:29.500Z,8.73
2023-05-21T00:47:56.334Z,10.77
2023-05-21T00:50:23.471Z,9.13
2023-05-21T00:52:50.153Z,9.70
2023-05-21T00:55:16.845Z,10.07
2023-05-21T00:57:45.936Z,8.87
2023-05-21T01:00:14.611Z,9.77
2023-05-21T01:02:42.142Z,9.33
2023-05-21T01:05:09.711Z,9.93
2023-05-21T01:07:39.108Z,10.83
2023-05-21T01:10:08.300Z,10.00
2023-05-21T01:12:35.533Z,11.73
2023-05-21T01:15:03.972Z,9.23
2023-05-21T01:17:31.651Z,10.17
2023-05-21T01:19:59.301Z,9.90
2023-05-21T01:22:30.747Z,9.77
2023-05-21T01:24:57.198Z,8.87
2023-05-21T01:27:23.689Z,9.27
2023-05-21T01:29:50.330Z,10.03
2023-05-21T01:32:41.459Z,9.30
2023-05-21T01:35:21.696Z,10.20
2023-05-21T01:37:55.670Z,9.73
2023-05-21T01:40:27.852Z,10.50
2023-05-21T01:42:54.380Z,9.73
2023-05-21T01:45:23.810Z,10.00
2023-05-21T01:47:53.954Z,10.10
2023-05-21T01:50:24.519Z,9.93
2023-05-21T01:52:58.462Z,10.60
2023-05-21T01:55:25.304Z,10.70
2023-05-21T01:57:53.392Z,10.93
2023-05-21T02:00:25.389Z,10.20
2023-05-21T02:02:52.033Z,10.60
2023-05-21T02:05:18.600Z,10.90
2023-05-21T02:07:46.145Z,9.77
2023-05-21T02:10:12.730Z,11.00
2023-05-21T02:12:39.212Z,9.77
2023-05-21T02:15:06.486Z,9.40
2023-05-21T02:17:34.141Z,10.57
2023-05-21T02:20:10.952Z,9.13
2023-05-21T02:22:47.950Z,9.37
2023-05-21T02:25:16.293Z,10.17
2023-05-21T02:27:43.594Z,10.00
2023-05-21T02:30:12.695Z,9.13
2023-05-21T02:32:42.487Z,9.80
2023-05-21T02:35:11.235Z,11.43
2023-05-21T02:37:40.202Z,9.87
2023-05-21T02:40:07.820Z,11.10
2023-05-21T02:42:34.517Z,11.57
2023-05-21T02:45:00.953Z,8.37
2023-05-21T02:47:27.432Z,10.33
2023-05-21T02:49:54.302Z,9.77
2023-05-21T02:52:22.509Z,9.17
2023-05-21T02:54:49.148Z,9.73
2023-05-21T02:57:15.744Z,11.00
2023-05-21T02:59:42.157Z,10.97
2023-05-21T03:02:08.621Z,10.40
2023-05-21T03:04:38.817Z,10.07
2023-05-21T03:07:06.018Z,10.07
2023-05-21T03:09:32.556Z,9.57
2023-05-21T03:11:59.095Z,10.30
2023-05-21T03:14:25.563Z,12.27
2023-05-21T03:16:52.017Z,9.97
2023-05-21T03:19:18.510Z,10.67
2023-05-21T03:21:45.112Z,10.20
2023-05-21T03:24:13.653Z,9.37
2023-05-21T03:26:40.229Z,10.53
2023-05-21T03:29:07.132Z,10.90
2023-05-21T03:31:35.561Z,10.00
2023-05-21T03:34:10.396Z,11.50
2023-05-21T03:36:36.830Z,9.93
2023-05-21T03:39:04.363Z,10.30
2023-05-21T03:41:33.262Z,11.30
2023-05-21T03:44:06.472Z,11.80
2023-05-21T03:46:45.572Z,9.00
2023-05-21T03:49:20.487Z,11.20
2023-05-21T03:51:49.156Z,9.97
2023-05-21T03:54:17.631Z,10.50
2023-05-21T03:56:44.513Z,9.70
2023-05-21T03:59:11.509Z,9.40
2023-05-21T04:01:38.987Z,10.87
2023-05-21T04:04:06.841Z,11.73
2023-05-21T04:06:33.357Z,11.17
2023-05-21T04:08:59.785Z,10.40
2023-05-21T04:11:26.232Z,12.00
2023-05-21T04:13:52.784Z,11.37
2023-05-21T04:16:19.586Z,10.80
2023-05-21T04:18:46.984Z,10.70
2023-05-21T04:21:15.229Z,11.73
2023-05-21T04:23:41.710Z,11.87
2023-05-21T04:26:16.209Z,11.97
2023-05-21T04:28:42.762Z,12.30
2023-05-21T04:31:09.549Z,9.40
2023-05-21T04:33:36.064Z,12.23
2023-05-21T04:36:03.821Z,11.30
2023-05-21T04:38:30.685Z,10.83
2023-05-21T04:40:58.665Z,11.33
2023-05-21T04:43:28.122Z,11.87
2023-05-21T04:45:59.929Z,10.93
2023-05-21T04:48:29.369Z,11.57
2023-05-21T04:50:56.663Z,12.07
2023-05-21T04:53:25.827Z,11.30
2023-05-21T04:55:52.341Z,10.90
2023-05-21T04:58:19.543Z,10.93
2023-05-21T05:00:47.476Z,11.47
2023-05-21T05:03:15.191Z,10.30
2023-05-21T05:05:43.190Z,10.47
2023-05-21T05:08:09.809Z,12.03
2023-05-21T05:10:36.668Z,11.70
2023-05-21T05:13:03.591Z,11.73
2023-05-21T05:15:30.132Z,11.60
2023-05-21T05:17:57.038Z,12.53
2023-05-21T05:20:23.581Z,12.23
2023-05-21T05:22:50.813Z,11.53
2023-05-21T05:25:17.349Z,11.73
2023-05-21T05:27:44.727Z,10.90
2023-05-21T05:30:11.703Z,12.20
2023-05-21T05:32:38.314Z,11.87
2023-05-21T05:35:05.941Z,11.43
2023-05-21T05:37:33.575Z,11.93
2023-05-21T05:40:00.139Z,12.50
2023-05-21T05:42:27.325Z,12.00
2023-05-21T05:44:54.083Z,12.57
2023-05-21T05:47:21.731Z,12.23
2023-05-21T05:49:48.266Z,12.10
2023-05-21T05:52:15.094Z,11.53
2023-05-21T05:54:41.534Z,11.87
2023-05-21T05:57:08.796Z,12.77
2023-05-21T05:59:35.861Z,12.47
2023-05-21T06:02:04.684Z,12.13
2023-05-21T06:04:31.352Z,13.20
2023-05-21T06:06:57.862Z,12.57
2023-05-21T06:09:24.536Z,12.73
2023-05-21T06:11:51.331Z,13.03
2023-05-21T06:14:17.806Z,12.57
2023-05-21T06:16:44.260Z,12.40
2023-05-21T06:19:10.861Z,14.27
2023-05-21T06:21:37.902Z,11.97
2023-05-21T06:24:05.666Z,13.43
2023-05-21T06:26:32.302Z,13.20
2023-05-21T06:28:59.589Z,12.53
2023-05-21T06:31:26.052Z,13.00
2023-05-21T06:33:53.776Z,14.17
2023-05-21T06:36:20.330Z,13.73
2023-05-21T06:38:47.781Z,12.73
2023-05-21T06:41:14.217Z,13.53
2023-05-21T06:43:53.519Z,12.97
2023-05-21T06:46:38.558Z,12.93
2023-05-21T06:49:07.941Z,13.20
2023-05-21T06:51:34.753Z,13.50
2023-05-21T06:54:02.503Z,12.93
2023-05-21T06:56:29.185Z,13.17
2023-05-21T06:58:55.920Z,13.50
2023-05-21T07:01:23.430Z,14.03
2023-05-21T07:03:50.042Z,17.67
2023-05-21T07:06:16.782Z,14.67
2023-05-21T07:08:43.492Z,14.73
2023-05-21T07:11:10.066Z,16.10
2023-05-21T07:13:37.124Z,15.40
2023-05-21T07:16:03.802Z,14.13
2023-05-21T07:18:31.135Z,16.03
2023-05-21T07:20:57.707Z,17.93
2023-05-21T07:23:24.909Z,14.33
2023-05-21T07:25:51.446Z,15.27
2023-05-21T07:28:18.825Z,15.47
2023-05-21T07:30:45.452Z,14.67
2023-05-21T07:33:16.281Z,13.83
2023-05-21T07:35:42.977Z,14.17
2023-05-21T07:38:09.453Z,15.67
2023-05-21T07:40:35.917Z,13.67
2023-05-21T07:43:03.346Z,14.73
2023-05-21T07:45:30.986Z,15.13
2023-05-21T07:47:57.707Z,14.70
2023-05-21T07:50:25.594Z,15.40
2023-05-21T07:52:52.484Z,15.80
2023-05-21T07:55:20.093Z,14.30
2023-05-21T07:57:47.052Z,15.00
2023-05-21T08:00:16.129Z,14.77
2023-05-21T08:02:46.853Z,13.67
2023-05-21T08:05:16.285Z,17.60
2023-05-21T08:07:43.316Z,14.83
2023-05-21T08:10:09.976Z,15.17
2023-05-21T08:12:36.608Z,14.87
2023-05-21T08:15:04.641Z,13.77
2023-05-21T08:17:32.681Z,13.93
2023-05-21T08:19:59.791Z,16.30
2023-05-21T08:22:27.348Z,13.43
2023-05-21T08:24:54.385Z,15.13
2023-05-21T08:27:21.205Z,14.80
2023-05-21T08:29:47.660Z,16.47
2023-05-21T08:32:14.192Z,16.37
2023-05-21T08:34:40.840Z,15.83
2023-05-21T08:37:21.280Z,15.10
2023-05-21T08:40:06.417Z,15.10
2023-05-21T08:42:45.952Z,14.40
2023-05-21T08:45:22.290Z,13.87
2023-05-21T08:47:59.783Z,15.00
2023-05-21T08:50:31.576Z,16.50
2023-05-21T08:53:04.010Z,14.97
2023-05-21T08:55:38.836Z,14.47
2023-05-21T08:58:05.597Z,16.53
2023-05-21T09:00:32.224Z,14.73
2023-05-21T09:03:02.071Z,18.70
2023-05-21T09:05:32.395Z,16.90
2023-05-21T09:08:06.855Z,18.43
2023-05-21T09:10:52.403Z,16.47
2023-05-21T09:13:24.880Z,17.03
2023-05-21T09:15:51.613Z,15.37
2023-05-21T09:18:19.657Z,31.03
2023-05-21T09:20:53.997Z,15.73
2023-05-21T09:23:20.819Z,17.23
2023-05-21T09:25:48.845Z,16.33
2023-05-21T09:28:23.166Z,16.77
2023-05-21T09:30:53.989Z,18.00
2023-05-21T09:33:29.311Z,17.03
2023-05-21T09:35:56.108Z,17.53
2023-05-21T09:38:25.984Z,17.07
2023-05-21T09:40:55.740Z,17.37
2023-05-21T09:43:22.808Z,24.87
2023-05-21T09:45:54.031Z,18.77
2023-05-21T09:48:36.406Z,17.27
2023-05-21T09:51:07.861Z,15.87
2023-05-21T09:53:34.394Z,16.40
2023-05-21T09:56:00.868Z,15.87
2023-05-21T09:58:27.409Z,18.00
2023-05-21T10:00:54.246Z,16.30
2023-05-21T10:03:23.486Z,16.57
2023-05-21T10:05:53.514Z,21.53
2023-05-21T10:08:22.684Z,20.23
2023-05-21T10:10:49.548Z,16.10
2023-05-21T10:13:18.568Z,16.23
2023-05-21T10:15:50.110Z,17.33
2023-05-21T10:18:18.760Z,15.37
2023-05-21T10:20:46.130Z,14.97
2023-05-21T10:23:13.100Z,18.20
2023-05-21T10:25:40.046Z,15.90
2023-05-21T10:28:06.991Z,28.87
2023-05-21T10:30:34.770Z,16.37
2023-05-21T10:33:02.768Z,15.60
2023-05-21T10:35:29.783Z,16.40
2023-05-21T10:37:58.602Z,17.13
2023-05-21T10:40:25.078Z,15.37
2023-05-21T10:43:28.819Z,14.27
2023-05-21T10:46:15.011Z,15.73
2023-05-21T10:49:11.429Z,14.80
2023-05-21T10:52:18.334Z,15.97
2023-05-21T10:54:59.832Z,16.17
2023-05-21T10:57:47.802Z,15.27
2023-05-21T11:00:18.004Z,15.87
2023-05-21T11:02:45.624Z,16.10
2023-05-21T11:05:12.260Z,15.00
2023-05-21T11:07:58.559Z,15.67
2023-05-21T11:10:40.339Z,16.97
2023-05-21T11:13:07.729Z,16.20
2023-05-21T11:15:58.987Z,16.53
2023-05-21T11:18:45.812Z,14.97
2023-05-21T11:21:14.630Z,16.93
2023-05-21T11:24:01.324Z,16.73
2023-05-21T11:26:51.959Z,27.83
2023-05-21T11:29:19.922Z,15.83
2023-05-21T11:31:47.830Z,15.30
2023-05-21T11:34:28.333Z,18.70
2023-05-21T11:37:16.903Z,15.73
2023-05-21T11:39:47.388Z,15.90
2023-05-21T11:42:27.408Z,17.63
2023-05-21T11:44:57.095Z,14.03
2023-05-21T11:47:24.620Z,16.03
2023-05-21T11:49:51.012Z,18.33
2023-05-21T11:52:19.530Z,14.77
2023-05-21T11:54:51.681Z,14.77
2023-05-21T11:57:19.391Z,15.40
2023-05-21T11:59:46.780Z,17.87
2023-05-21T12:02:20.076Z,17.30
2023-05-21T12:04:48.558Z,16.43
2023-05-21T12:07:17.550Z,15.50
2023-05-21T12:09:51.137Z,17.27
2023-05-21T12:12:19.617Z,15.03
2023-05-21T12:14:47.822Z,16.33
2023-05-21T12:17:18.808Z,15.17
2023-05-21T12:19:46.518Z,16.23
2023-05-21T12:22:13.441Z,15.60
2023-05-21T12:24:39.852Z,15.57
2023-05-21T12:27:09.462Z,16.63
2023-05-21T12:29:48.598Z,15.37
2023-05-21T12:32:15.911Z,15.87
2023-05-21T12:34:46.886Z,22.13
2023-05-21T12:37:27.144Z,18.43
2023-05-21T12:39:55.368Z,16.77
2023-05-21T12:42:34.670Z,16.47
2023-05-21T12:45:08.300Z,15.20
2023-05-21T12:47:34.937Z,15.90
2023-05-21T12:50:03.000Z,17.40
2023-05-21T12:52:33.013Z,15.10
2023-05-21T12:55:00.423Z,15.60
2023-05-21T12:57:38.545Z,16.83
2023-05-21T13:00:06.916Z,16.63
2023-05-21T13:02:41.179Z,16.63
2023-05-21T13:05:10.006Z,16.20
2023-05-21T13:07:38.539Z,14.03
2023-05-21T13:10:06.663Z,15.77
2023-05-21T13:12:33.987Z,14.27
2023-05-21T13:15:02.055Z,15.17
2023-05-21T13:17:29.068Z,14.20
2023-05-21T13:20:16.642Z,19.80
2023-05-21T13:22:46.568Z,14.57
2023-05-21T13:25:18.781Z,14.70
2023-05-21T13:27:45.617Z,13.97
2023-05-21T13:30:12.189Z,14.77
2023-05-21T13:32:39.750Z,15.97
2023-05-21T13:35:07.199Z,14.20
2023-05-21T13:37:37.509Z,26.50
2023-05-21T13:40:05.729Z,13.57
2023-05-21T13:42:32.783Z,14.07
2023-05-21T13:44:59.256Z,14.00
2023-05-21T13:47:25.803Z,13.83
2023-05-21T13:49:52.566Z,28.20
2023-05-21T13:52:19.689Z,15.00
2023-05-21T13:54:46.091Z,14.43
2023-05-21T13:57:12.545Z,15.20
2023-05-21T13:59:40.701Z,15.10
2023-05-21T14:02:08.865Z,14.50
2023-05-21T14:04:38.391Z,15.33
2023-05-21T14:07:05.761Z,16.67
2023-05-21T14:09:32.313Z,16.07
2023-05-21T14:11:58.714Z,15.63
2023-05-21T14:14:25.755Z,15.30
2023-05-21T14:16:52.299Z,14.37
2023-05-21T14:19:18.837Z,13.77
2023-05-21T14:21:45.297Z,15.73
2023-05-21T14:24:11.799Z,12.73
2023-05-21T14:26:41.237Z,13.20
2023-05-21T14:29:08.286Z,15.30
2023-05-21T14:31:35.004Z,14.80
2023-05-21T14:34:02.755Z,14.00
2023-05-21T14:36:29.715Z,15.57
2023-05-21T14:38:56.207Z,13.63
2023-05-21T14:41:29.082Z,15.50
2023-05-21T14:43:55.477Z,17.48
2023-05-21T14:46:22.143Z,14.50
2023-05-21T14:48:48.772Z,13.32
2023-05-21T14:51:15.296Z,16.08
2023-05-21T14:53:42.060Z,13.93
2023-05-21T14:56:08.747Z,13.48
2023-05-21T14:58:35.184Z,14.05
2023-05-21T15:01:04.012Z,13.80
2023-05-21T15:03:30.533Z,14.25
2023-05-21T15:05:58.384Z,13.50
2023-05-21T15:08:24.816Z,12.38
2023-05-21T15:10:51.206Z,14.35
2023-05-21T15:13:17.661Z,13.57
2023-05-21T15:15:44.623Z,12.52
2023-05-21T15:18:11.873Z,13.10
2023-05-21T15:20:38.681Z,14.88
2023-05-21T15:23:16.071Z,13.52
2023-05-21T15:25:44.274Z,12.38
2023-05-21T15:28:11.835Z,13.02
2023-05-21T15:30:38.268Z,12.75
2023-05-21T15:33:04.727Z,14.13
2023-05-21T15:35:31.286Z,13.32
2023-05-21T15:37:57.855Z,14.20
2023-05-21T15:40:26.236Z,15.25
2023-05-21T15:42:53.623Z,13.60
2023-05-21T15:45:20.350Z,14.93
2023-05-21T15:47:46.892Z,13.45
2023-05-21T15:50:13.365Z,18.27
2023-05-21T15:52:41.756Z,12.50
2023-05-21T15:55:08.723Z,14.93
2023-05-21T15:57:35.197Z,14.68
2023-05-21T16:00:01.853Z,14.23
2023-05-21T16:02:28.269Z,14.82
2023-05-21T16:04:54.904Z,13.52
2023-05-21T16:07:23.097Z,14.80
2023-05-21T16:09:49.600Z,14.48
2023-05-21T16:12:16.077Z,13.05
2023-05-21T16:14:42.471Z,15.40
2023-05-21T16:17:08.989Z,15.23
2023-05-21T16:19:35.609Z,16.85
2023-05-21T16:22:02.076Z,12.68
2023-05-21T16:24:28.487Z,14.63
2023-05-21T16:26:54.845Z,15.52
2023-05-21T16:29:22.103Z,18.15
2023-05-21T16:31:48.913Z,16.73
2023-05-21T16:34:15.654Z,16.88
2023-05-21T16:36:42.058Z,15.10
2023-05-21T16:39:08.582Z,14.82
2023-05-21T16:41:35.053Z,15.85
2023-05-21T16:44:01.477Z,15.88
2023-05-21T16:46:27.890Z,15.25
2023-05-21T16:48:54.320Z,15.55
2023-05-21T16:51:20.702Z,14.90
2023-05-21T16:53:47.085Z,16.90
2023-05-21T16:56:13.462Z,15.18
2023-05-21T16:58:39.896Z,18.10
2023-05-21T17:01:06.346Z,20.02
2023-05-21T17:03:33.131Z,14.65
2023-05-21T17:05:59.674Z,16.52
2023-05-21T17:08:26.134Z,16.50
2023-05-21T17:10:52.583Z,15.90
2023-05-21T17:13:22.565Z,14.55
2023-05-21T17:15:50.836Z,18.50
2023-05-21T17:18:17.465Z,15.20
2023-05-21T17:20:43.933Z,15.73
2023-05-21T17:23:11.543Z,15.95
2023-05-21T17:25:38.296Z,15.20
2023-05-21T17:28:05.109Z,14.40
2023-05-21T17:30:31.561Z,15.00
2023-05-21T17:32:58.316Z,14.75
2023-05-21T17:35:24.792Z,14.75
2023-05-21T17:37:53.126Z,14.63
2023-05-21T17:40:21.170Z,15.93
2023-05-21T17:42:47.589Z,14.55
2023-05-21T17:45:13.964Z,15.65
2023-05-21T17:47:40.516Z,13.95
2023-05-21T17:50:07.744Z,14.88
2023-05-21T17:52:34.115Z,14.05
2023-05-21T17:55:01.042Z,15.18
2023-05-21T17:57:27.469Z,13.75
2023-05-21T17:59:55.011Z,15.00
2023-05-21T18:02:23.310Z,14.32
2023-05-21T18:04:49.747Z,14.95
2023-05-21T18:07:16.507Z,14.95
2023-05-21T18:09:42.874Z,14.38
2023-05-21T18:12:09.328Z,14.32
2023-05-21T18:14:35.739Z,14.73
2023-05-21T18:17:02.406Z,13.63
2023-05-21T18:19:28.992Z,13.73
2023-05-21T18:21:56.559Z,15.25
2023-05-21T18:24:22.983Z,13.65
2023-05-21T18:26:49.376Z,14.05
2023-05-21T18:29:15.856Z,14.60
2023-05-21T18:31:44.894Z,14.05
2023-05-21T18:34:11.479Z,15.90
2023-05-21T18:36:40.963Z,12.90
2023-05-21T18:39:08.910Z,15.30
2023-05-21T18:41:36.051Z,13.77
2023-05-21T18:44:02.819Z,15.95
2023-05-21T18:46:29.506Z,15.98
2023-05-21T18:48:56.321Z,15.57
2023-05-21T18:51:22.807Z,15.52
2023-05-21T18:53:49.230Z,15.38
2023-05-21T18:56:15.768Z,16.00
2023-05-21T18:58:42.206Z,14.95
2023-05-21T19:01:08.654Z,15.50
2023-05-21T19:03:35.028Z,16.63
2023-05-21T19:06:01.445Z,15.33
2023-05-21T19:08:27.824Z,16.50
2023-05-21T19:10:54.283Z,17.43
2023-05-21T19:13:20.878Z,16.87
2023-05-21T19:15:48.337Z,16.50
2023-05-21T19:18:14.776Z,17.30
2023-05-21T19:20:41.219Z,17.33
2023-05-21T19:23:07.768Z,17.17
2023-05-21T19:25:34.452Z,15.70
2023-05-21T19:28:00.878Z,15.13
2023-05-21T19:30:27.449Z,16.93
2023-05-21T19:32:53.867Z,18.73
2023-05-21T19:35:20.566Z,15.77
2023-05-21T19:37:47.346Z,16.63
2023-05-21T19:40:13.803Z,17.03
2023-05-21T19:42:40.222Z,15.53
2023-05-21T19:45:09.676Z,16.73
2023-05-21T19:47:36.416Z,17.77
2023-05-21T19:50:03.429Z,17.40
2023-05-21T19:52:30.091Z,16.87
2023-05-21T19:55:04.145Z,15.87
2023-05-21T19:57:31.561Z,18.07
2023-05-21T19:59:58.711Z,17.93
2023-05-21T20:02:25.380Z,17.63
2023-05-21T20:04:53.329Z,19.47
2023-05-21T20:07:19.857Z,18.90
2023-05-21T20:09:46.474Z,18.33
2023-05-21T20:12:12.866Z,19.27
2023-05-21T20:14:39.454Z,18.43
2023-05-21T20:17:06.071Z,18.37
2023-05-21T20:19:32.737Z,19.63
2023-05-21T20:21:59.304Z,17.17
2023-05-21T20:24:25.893Z,18.10
2023-05-21T20:26:52.359Z,18.80
2023-05-21T20:29:18.725Z,18.03
2023-05-21T20:31:45.481Z,14.30
2023-05-21T20:34:12.281Z,13.13
2023-05-21T20:36:40.337Z,11.70
2023-05-21T20:39:07.419Z,11.57
2023-05-21T20:41:37.465Z,11.47
2023-05-21T20:44:05.116Z,10.80
2023-05-21T20:46:38.136Z,15.47
2023-05-21T20:49:05.115Z,10.00
2023-05-21T20:51:31.590Z,9.53
2023-05-21T20:53:58.149Z,22.00
2023-05-21T20:56:40.771Z,9.40
2023-05-21T20:59:10.464Z,10.10
2023-05-21T21:01:37.848Z,9.50
2023-05-21T21:04:04.827Z,9.63
2023-05-21T21:06:31.689Z,10.63
2023-05-21T21:09:04.515Z,9.13
2023-05-21T21:11:31.113Z,9.83
2023-05-21T21:13:57.469Z,9.37
2023-05-21T21:16:23.919Z,10.40
2023-05-21T21:18:50.412Z,9.77
2023-05-21T21:21:16.828Z,9.23
2023-05-21T21:23:43.233Z,9.17
2023-05-21T21:26:09.678Z,10.13
2023-05-21T21:28:36.076Z,9.00
2023-05-21T21:31:02.685Z,14.63
2023-05-21T21:33:29.185Z,9.20
2023-05-21T21:35:55.595Z,9.97
2023-05-21T21:38:22.072Z,8.20
2023-05-21T21:40:48.790Z,9.23
2023-05-21T21:43:15.285Z,9.47
2023-05-21T21:45:41.709Z,9.00
2023-05-21T21:48:08.137Z,8.83
2023-05-21T21:50:34.590Z,8.70
2023-05-21T21:53:01.208Z,9.40
2023-05-21T21:55:27.716Z,10.10
2023-05-21T21:57:54.112Z,9.27
2023-05-21T22:00:20.899Z,9.57
2023-05-21T22:02:47.463Z,9.73
2023-05-21T22:05:16.829Z,9.87
2023-05-21T22:07:46.797Z,9.97
2023-05-21T22:10:15.010Z,8.97
2023-05-21T22:12:42.560Z,9.07
2023-05-21T22:15:17.800Z,10.10
2023-05-21T22:17:44.291Z,10.00
2023-05-21T22:20:11.270Z,8.90
2023-05-21T22:22:37.641Z,10.97
2023-05-21T22:25:04.299Z,10.17
2023-05-21T22:27:30.894Z,10.20
2023-05-21T22:29:57.248Z,10.03
2023-05-21T22:32:23.624Z,9.60
2023-05-21T22:34:50.000Z,8.93
2023-05-21T22:37:16.368Z,9.60
2023-05-21T22:39:42.713Z,10.40
2023-05-21T22:42:09.188Z,10.47
2023-05-21T22:44:35.664Z,10.20
2023-05-21T22:47:03.352Z,10.00
2023-05-21T22:49:32.487Z,9.97
2023-05-21T22:52:09.242Z,9.47
2023-05-21T22:54:36.058Z,10.50
2023-05-21T22:57:02.668Z,10.03
2023-05-21T22:59:29.565Z,10.53
2023-05-21T23:01:55.977Z,9.17
2023-05-21T23:04:35.658Z,9.80
2023-05-21T23:07:06.510Z,9.70
2023-05-21T23:09:32.922Z,9.97
2023-05-21T23:11:59.343Z,10.70
2023-05-21T23:14:25.731Z,10.03
2023-05-21T23:16:53.824Z,11.07
2023-05-21T23:19:21.147Z,10.80
2023-05-21T23:21:47.682Z,11.90
2023-05-21T23:24:14.045Z,11.30
2023-05-21T23:26:40.682Z,10.40
2023-05-21T23:29:07.052Z,10.93
2023-05-21T23:31:33.534Z,11.00
2023-05-21T23:34:01.512Z,10.80
2023-05-21T23:36:27.894Z,11.77
2023-05-21T23:38:54.243Z,12.00
2023-05-21T23:41:20.848Z,11.67
2023-05-21T23:43:47.195Z,12.13
2023-05-21T23:46:13.674Z,12.50
2023-05-21T23:48:40.147Z,12.70
2023-05-21T23:51:06.742Z,12.60
2023-05-21T23:53:33.131Z,13.67
2023-05-21T23:55:59.493Z,11.23
2023-05-21T23:58:25.957Z,12.87
